Time;durP1;ratioP1;P1;durP2;ratioP2;P2;SDS_P1;SDS_P2;PMS_P1;PMS_P2;Temp;Humidity;BMP_temperature;BMP_pressure;BME280_temperature;BME280_humidity;BME280_pressure;Samples;Min_cycle;Max_cycle;Signal;HPM_P1;HPM_P2
2022/03/06 00:02:27;;;;;;;13.73;10.43;;;;;;;-1.72;100.00;97318.75;4951394;28;20220;-49
2022/03/06 00:04:55;;;;;;;14.47;10.00;;;;;;;-1.84;100.00;97317.78;4965997;28;20214;-52
2022/03/06 00:07:23;;;;;;;10.50;9.23;;;;;;;-1.83;100.00;97310.84;4951842;28;20627;-52
2022/03/06 00:09:51;;;;;;;11.20;8.50;;;;;;;-1.93;100.00;97314.03;4961249;28;20207;-52
2022/03/06 00:12:21;;;;;;;11.63;9.53;;;;;;;-1.96;100.00;97311.66;4930633;28;20241;-54
2022/03/06 00:14:49;;;;;;;11.27;9.03;;;;;;;-2.02;100.00;97308.66;4955579;28;20686;-51
2022/03/06 00:17:17;;;;;;;12.57;9.80;;;;;;;-2.07;100.00;97306.34;4935310;28;20326;-52
2022/03/06 00:19:46;;;;;;;12.37;10.57;;;;;;;-2.02;100.00;97306.06;4960024;28;20240;-52
2022/03/06 00:22:14;;;;;;;11.10;9.87;;;;;;;-1.98;100.00;97307.50;4964300;28;20539;-51
2022/03/06 00:24:42;;;;;;;11.50;9.20;;;;;;;-2.06;100.00;97306.25;4951855;28;20214;-49
2022/03/06 00:27:10;;;;;;;12.30;10.10;;;;;;;-2.04;100.00;97304.38;4925631;28;20538;-51
2022/03/06 00:29:40;;;;;;;13.53;10.30;;;;;;;-2.16;100.00;97309.56;4959875;28;20227;-49
2022/03/06 00:32:09;;;;;;;12.27;9.30;;;;;;;-2.21;100.00;97302.06;4928205;28;23920;-53
2022/03/06 00:34:37;;;;;;;12.77;9.13;;;;;;;-2.11;100.00;97305.72;4964280;28;20233;-54
2022/03/06 00:37:05;;;;;;;11.53;10.33;;;;;;;-2.11;100.00;97305.72;4958078;28;20987;-54
2022/03/06 00:39:34;;;;;;;15.60;10.47;;;;;;;-2.17;100.00;97307.91;4932447;28;20208;-54
2022/03/06 00:42:03;;;;;;;11.00;9.60;;;;;;;-2.16;100.00;97312.16;4927382;28;20347;-51
2022/03/06 00:44:33;;;;;;;11.57;9.93;;;;;;;-2.33;100.00;97304.53;4960562;28;20202;-53
2022/03/06 00:47:04;;;;;;;11.43;9.70;;;;;;;-2.39;100.00;97306.69;4936211;28;20554;-51
2022/03/06 00:49:32;;;;;;;10.40;9.17;;;;;;;-2.34;100.00;97305.47;4944983;28;20233;-54
2022/03/06 00:52:00;;;;;;;12.33;9.87;;;;;;;-2.23;100.00;97302.19;4964680;28;20435;-54
2022/03/06 00:54:29;;;;;;;11.87;9.37;;;;;;;-2.34;100.00;97302.88;4951583;28;20211;-53
2022/03/06 00:56:57;;;;;;;12.37;9.43;;;;;;;-2.39;100.00;97307.53;4924614;28;21523;-54
2022/03/06 00:59:25;;;;;;;9.97;8.73;;;;;;;-2.40;100.00;97308.47;4958719;28;20209;-55
2022/03/06 01:01:53;;;;;;;13.90;9.40;;;;;;;-2.45;100.00;97305.34;4956977;28;20213;-50
2022/03/06 01:04:23;;;;;;;13.97;9.83;;;;;;;-2.51;100.00;97308.31;4928279;28;20217;-50
2022/03/06 01:06:51;;;;;;;9.87;8.53;;;;;;;-2.52;100.00;97306.66;4961735;28;20344;-52
2022/03/06 01:09:19;;;;;;;11.63;10.13;;;;;;;-2.53;100.00;97313.63;4964402;28;20222;-53
2022/03/06 01:11:47;;;;;;;10.10;9.13;;;;;;;-2.68;100.00;97310.22;4944096;28;20666;-50
2022/03/06 01:14:16;;;;;;;14.10;10.07;;;;;;;-2.81;100.00;97310.19;4929437;28;20218;-53
2022/03/06 01:16:44;;;;;;;11.80;9.83;;;;;;;-2.89;100.00;97316.75;4957820;28;20727;-51
2022/03/06 01:19:12;;;;;;;14.23;10.17;;;;;;;-2.95;100.00;97307.63;4948988;28;20348;-55
2022/03/06 01:21:42;;;;;;;12.93;9.30;;;;;;;-3.25;100.00;97311.19;4947409;28;20221;-50
2022/03/06 01:24:10;;;;;;;9.77;8.77;;;;;;;-3.48;100.00;97310.81;4964413;28;20400;-51
2022/03/06 01:26:38;;;;;;;11.63;9.50;;;;;;;-3.65;100.00;97319.59;4953939;28;20234;-48
2022/03/06 01:29:06;;;;;;;10.13;8.90;;;;;;;-3.48;100.00;97316.00;4922090;28;20263;-52
2022/03/06 01:31:35;;;;;;;10.40;9.33;;;;;;;-3.83;100.00;97319.78;4963525;28;20212;-48
2022/03/06 01:34:03;;;;;;;12.13;9.60;;;;;;;-4.00;100.00;97315.59;4939383;28;20374;-51
2022/03/06 01:36:32;;;;;;;11.20;8.23;;;;;;;-4.08;100.00;97315.22;4950335;28;20233;-55
2022/03/06 01:39:01;;;;;;;10.67;9.57;;;;;;;-4.07;100.00;97315.13;4963451;28;20224;-51
2022/03/06 01:41:33;;;;;;;15.20;10.23;;;;;;;-4.09;100.00;97316.16;4949803;28;20794;-55
2022/03/06 01:44:02;;;;;;;10.17;9.03;;;;;;;-3.93;100.00;97318.69;4959136;28;20198;-52
2022/03/06 01:46:30;;;;;;;10.27;8.53;;;;;;;-4.13;100.00;97319.84;4929206;28;20230;-49
2022/03/06 01:48:58;;;;;;;10.60;9.50;;;;;;;-3.83;100.00;97317.19;4960590;28;20257;-52
2022/03/06 01:51:26;;;;;;;14.50;10.97;;;;;;;-4.06;100.00;97321.13;4938371;28;20218;-53
2022/03/06 01:53:54;;;;;;;14.37;10.63;;;;;;;-4.30;100.00;97320.81;4957435;28;21739;-52
2022/03/06 01:56:24;;;;;;;15.17;11.93;;;;;;;-4.49;100.00;97326.19;4961789;28;20316;-50
2022/03/06 01:58:52;;;;;;;11.93;10.07;;;;;;;-4.60;100.00;97326.78;4946635;28;20339;-48
2022/03/06 02:01:20;;;;;;;14.27;10.70;;;;;;;-4.69;100.00;97328.13;4931756;28;20236;-53
2022/03/06 02:03:49;;;;;;;11.53;10.20;;;;;;;-4.77;100.00;97335.47;4958940;28;20252;-49
2022/03/06 02:06:18;;;;;;;14.80;10.27;;;;;;;-4.56;100.00;97334.25;4936082;28;20228;-54
2022/03/06 02:08:48;;;;;;;11.83;10.63;;;;;;;-4.44;100.00;97337.91;4956221;28;20230;-46
2022/03/06 02:11:17;;;;;;;11.97;10.67;;;;;;;-4.63;100.00;97343.28;4966006;28;20320;-46
2022/03/06 02:13:46;;;;;;;11.60;9.97;;;;;;;-4.71;100.00;97354.06;4949947;28;20210;-49
2022/03/06 02:16:15;;;;;;;11.20;9.93;;;;;;;-4.53;100.00;97341.03;4959466;28;20229;-51
2022/03/06 02:18:43;;;;;;;11.23;9.63;;;;;;;-4.10;100.00;97340.34;4923651;28;20241;-50
2022/03/06 02:21:14;;;;;;;15.63;9.93;;;;;;;-4.05;100.00;97340.06;4944417;28;24647;-52
2022/03/06 02:23:42;;;;;;;12.53;9.60;;;;;;;-4.39;100.00;97329.91;4958992;28;20210;-47
2022/03/06 02:26:12;;;;;;;11.00;9.03;;;;;;;-4.43;100.00;97343.94;4960995;28;20438;-49
2022/03/06 02:28:42;;;;;;;11.23;9.43;;;;;;;-4.59;100.00;97341.38;4962290;28;20853;-53
2022/03/06 02:31:12;;;;;;;11.87;9.50;;;;;;;-4.09;100.00;97342.84;4952726;28;20210;-52
2022/03/06 02:33:40;;;;;;;11.00;9.37;;;;;;;-3.93;100.00;97341.97;4928858;28;20209;-48
2022/03/06 02:36:08;;;;;;;12.27;10.03;;;;;;;-3.84;100.00;97344.03;4936591;28;20241;-51
2022/03/06 02:38:38;;;;;;;10.77;9.63;;;;;;;-3.75;100.00;97341.81;4959976;28;20485;-49
2022/03/06 02:41:06;;;;;;;10.33;8.90;;;;;;;-3.80;100.00;97337.72;4962165;28;21070;-49
2022/03/06 02:43:34;;;;;;;11.47;8.77;;;;;;;-3.72;100.00;97344.22;4966673;28;20210;-52
2022/03/06 02:46:02;;;;;;;11.20;8.93;;;;;;;-3.74;100.00;97343.47;4951144;28;20255;-53
2022/03/06 02:48:31;;;;;;;11.97;8.73;;;;;;;-3.88;100.00;97344.28;4929113;28;20281;-49
2022/03/06 02:50:59;;;;;;;11.63;9.87;;;;;;;-3.78;100.00;97341.06;4963538;28;20248;-52
2022/03/06 02:53:27;;;;;;;14.03;11.17;;;;;;;-3.67;100.00;97344.78;4945475;28;20214;-49
2022/03/06 02:55:58;;;;;;;11.37;9.87;;;;;;;-3.69;100.00;97338.84;4964315;28;20301;-51
2022/03/06 02:58:26;;;;;;;13.27;11.67;;;;;;;-3.84;100.00;97325.03;4964891;28;20224;-50
2022/03/06 03:00:54;;;;;;;17.93;16.03;;;;;;;-3.81;100.00;97341.25;4949042;28;20206;-53
2022/03/06 03:03:24;;;;;;;20.10;14.00;;;;;;;-3.94;100.00;97345.50;4963685;28;20228;-48
2022/03/06 03:05:52;;;;;;;12.57;10.13;;;;;;;-3.91;100.00;97340.13;4931176;28;20597;-52
2022/03/06 03:08:20;;;;;;;14.17;10.17;;;;;;;-4.08;100.00;97341.91;4946927;28;20237;-52
2022/03/06 03:10:48;;;;;;;11.03;9.57;;;;;;;-3.96;100.00;97352.50;4960235;28;20325;-50
2022/03/06 03:13:18;;;;;;;11.57;9.77;;;;;;;-4.11;100.00;97354.22;4963733;28;20739;-48
2022/03/06 03:15:46;;;;;;;10.97;9.23;;;;;;;-4.08;100.00;97349.69;4949407;28;20609;-47
2022/03/06 03:18:14;;;;;;;11.50;9.23;;;;;;;-4.28;100.00;97358.59;4962626;28;20296;-52
2022/03/06 03:20:42;;;;;;;12.90;10.30;;;;;;;-4.39;100.00;97355.78;4927371;28;20216;-51
2022/03/06 03:23:10;;;;;;;13.83;9.97;;;;;;;-4.53;100.00;97356.53;4939648;28;20588;-56
2022/03/06 03:25:38;;;;;;;10.37;8.53;;;;;;;-4.42;100.00;97359.34;4961814;28;20580;-55
2022/03/06 03:28:06;;;;;;;11.80;9.63;;;;;;;-4.53;100.00;97359.97;4962484;28;20422;-49
2022/03/06 03:30:36;;;;;;;9.83;8.63;;;;;;;-4.62;100.00;97360.47;4965412;28;20795;-49
2022/03/06 03:33:04;;;;;;;10.60;8.73;;;;;;;-4.47;100.00;97360.56;4951718;28;20686;-53
2022/03/06 03:35:32;;;;;;;13.13;8.83;;;;;;;-4.40;100.00;97349.75;4931548;28;20376;-48
2022/03/06 03:38:00;;;;;;;11.10;8.23;;;;;;;-4.32;100.00;97354.50;4961740;28;20205;-55
2022/03/06 03:40:29;;;;;;;10.87;8.57;;;;;;;-4.27;100.00;97355.06;4943165;28;20582;-49
2022/03/06 03:42:57;;;;;;;10.20;9.20;;;;;;;-4.23;100.00;97360.94;4961531;28;20388;-49
2022/03/06 03:45:28;;;;;;;13.60;9.30;;;;;;;-4.16;100.00;97346.72;4949239;28;20236;-49
2022/03/06 03:47:58;;;;;;;14.07;10.10;;;;;;;-4.15;100.00;97350.97;4946066;28;20570;-53
2022/03/06 03:50:26;;;;;;;12.27;8.97;;;;;;;-4.09;100.00;97350.59;4966967;28;20416;-53
2022/03/06 03:52:54;;;;;;;12.33;9.90;;;;;;;-4.05;100.00;97359.03;4922648;28;20598;-48
2022/03/06 03:55:22;;;;;;;13.03;10.27;;;;;;;-4.08;100.00;97359.22;4937954;28;20319;-52
2022/03/06 03:57:51;;;;;;;11.70;9.37;;;;;;;-4.14;100.00;97359.56;4960239;28;20217;-50
2022/03/06 04:00:19;;;;;;;14.23;9.63;;;;;;;-4.09;100.00;97350.59;4965495;28;20242;-52
2022/03/06 04:02:47;;;;;;;12.87;9.27;;;;;;;-4.03;100.00;97352.03;4947961;28;20370;-47
2022/03/06 04:05:17;;;;;;;14.60;10.37;;;;;;;-4.07;100.00;97358.31;4964093;28;20544;-56
2022/03/06 04:07:45;;;;;;;11.03;9.13;;;;;;;-4.06;100.00;97359.97;4926122;28;20476;-49
2022/03/06 04:10:13;;;;;;;11.10;9.60;;;;;;;-4.19;100.00;97354.66;4969184;28;20308;-52
2022/03/06 04:12:41;;;;;;;10.57;8.97;;;;;;;-4.21;100.00;97348.72;4937324;28;20714;-48
2022/03/06 04:15:10;;;;;;;12.37;9.57;;;;;;;-4.23;100.00;97359.16;4965839;28;20279;-49
2022/03/06 04:17:38;;;;;;;10.77;8.40;;;;;;;-4.28;100.00;97362.94;4945346;28;20210;-51
2022/03/06 04:20:07;;;;;;;10.87;8.30;;;;;;;-4.21;100.00;97357.31;4965300;28;20233;-55
2022/03/06 04:22:37;;;;;;;9.00;8.10;;;;;;;-4.21;100.00;97367.66;4927478;28;20359;-54
2022/03/06 04:25:06;;;;;;;12.87;9.23;;;;;;;-4.13;100.00;97362.06;4969175;28;20265;-50
2022/03/06 04:27:34;;;;;;;9.20;8.30;;;;;;;-4.14;100.00;97373.34;4932025;28;20294;-49
2022/03/06 04:30:03;;;;;;;10.43;8.50;;;;;;;-4.31;100.00;97376.88;4966664;28;20253;-50
2022/03/06 04:32:31;;;;;;;11.43;8.67;;;;;;;-4.29;100.00;97371.63;4942075;28;20499;-47
2022/03/06 04:34:59;;;;;;;10.07;9.07;;;;;;;-4.30;100.00;97370.78;4964695;28;20567;-54
2022/03/06 04:37:28;;;;;;;13.60;9.37;;;;;;;-4.30;100.00;97380.31;4924386;28;20277;-51
2022/03/06 04:39:57;;;;;;;11.13;9.23;;;;;;;-4.32;100.00;97384.75;4961650;28;21414;-53
2022/03/06 04:42:25;;;;;;;9.93;8.37;;;;;;;-4.32;100.00;97382.97;4962453;28;20298;-53
2022/03/06 04:44:54;;;;;;;12.53;9.50;;;;;;;-4.36;100.00;97379.75;4933070;28;20465;-53
2022/03/06 04:47:22;;;;;;;13.50;9.53;;;;;;;-4.36;100.00;97382.31;4945973;28;20726;-51
2022/03/06 04:49:50;;;;;;;10.13;9.03;;;;;;;-4.28;100.00;97383.66;4943599;28;20676;-49
2022/03/06 04:52:18;;;;;;;11.23;8.97;;;;;;;-4.59;100.00;97368.06;4922433;28;20313;-51
2022/03/06 04:54:46;;;;;;;11.73;9.40;;;;;;;-4.42;100.00;97382.63;4955020;28;21016;-46
2022/03/06 04:57:16;;;;;;;9.67;8.70;;;;;;;-4.42;100.00;97384.41;4961795;28;20225;-49
2022/03/06 04:59:44;;;;;;;9.63;8.63;;;;;;;-4.38;100.00;97391.06;4931548;28;20229;-48
2022/03/06 05:02:12;;;;;;;10.43;9.33;;;;;;;-4.34;100.00;97389.16;4958734;28;20300;-51
2022/03/06 05:04:41;;;;;;;11.03;8.93;;;;;;;-4.38;100.00;97388.50;4943811;28;20213;-50
2022/03/06 05:07:09;;;;;;;12.33;9.30;;;;;;;-4.49;100.00;97388.25;4964631;28;20234;-49
2022/03/06 05:09:37;;;;;;;10.37;9.37;;;;;;;-4.46;100.00;97388.09;4920362;28;20217;-49
2022/03/06 05:12:06;;;;;;;10.27;9.17;;;;;;;-4.63;100.00;97383.84;4963643;28;20225;-54
2022/03/06 05:14:36;;;;;;;11.57;9.50;;;;;;;-4.49;100.00;97388.25;4958399;28;20272;-51
2022/03/06 05:17:05;;;;;;;12.13;9.50;;;;;;;-4.63;100.00;97389.84;4941009;28;20358;-53
2022/03/06 05:19:33;;;;;;;9.77;8.07;;;;;;;-4.55;100.00;97392.81;4947611;28;20287;-48
2022/03/06 05:22:01;;;;;;;13.03;9.33;;;;;;;-4.50;100.00;97392.59;4938387;28;20565;-52
2022/03/06 05:24:29;;;;;;;11.70;9.00;;;;;;;-4.51;100.00;97396.09;4926372;28;20272;-49
2022/03/06 05:26:57;;;;;;;12.57;9.77;;;;;;;-4.60;100.00;97389.66;4960575;28;20226;-52
2022/03/06 05:29:25;;;;;;;10.57;9.67;;;;;;;-4.61;100.00;97390.59;4962487;28;20210;-49
2022/03/06 05:31:55;;;;;;;12.03;10.10;;;;;;;-4.53;100.00;97400.50;4923781;28;20788;-55
2022/03/06 05:34:23;;;;;;;12.87;9.60;;;;;;;-4.59;100.00;97391.34;4963277;28;20876;-49
2022/03/06 05:36:51;;;;;;;14.47;11.00;;;;;;;-4.67;100.00;97394.34;4917687;28;20261;-56
2022/03/06 05:39:19;;;;;;;12.13;10.63;;;;;;;-4.85;100.00;97395.34;4923234;28;20213;-57
2022/03/06 05:41:48;;;;;;;10.50;9.40;;;;;;;-5.09;100.00;97404.31;4959872;28;20457;-46
2022/03/06 05:44:16;;;;;;;11.37;9.47;;;;;;;-5.30;100.00;97388.19;4965463;28;20287;-53
2022/03/06 05:46:44;;;;;;;15.77;10.27;;;;;;;-5.30;100.00;97395.94;4930770;28;20265;-48
2022/03/06 05:49:14;;;;;;;11.37;10.17;;;;;;;-5.26;100.00;97392.28;4963366;28;20218;-51
2022/03/06 05:51:44;;;;;;;12.10;9.63;;;;;;;-5.36;100.00;97396.25;4944067;28;20861;-49
2022/03/06 05:54:12;;;;;;;11.10;9.77;;;;;;;-5.35;100.00;97400.50;4943787;28;20582;-50
2022/03/06 05:56:40;;;;;;;12.70;9.20;;;;;;;-5.39;100.00;97405.00;4919785;28;20505;-50
2022/03/06 05:59:09;;;;;;;11.80;9.60;;;;;;;-4.98;100.00;97395.16;4959781;28;20598;-50
2022/03/06 06:01:38;;;;;;;17.43;12.53;;;;;;;-4.81;100.00;97391.66;4932055;28;20233;-52
2022/03/06 06:04:06;;;;;;;13.60;9.90;;;;;;;-4.79;100.00;97392.41;4961756;28;20209;-51
2022/03/06 06:06:36;;;;;;;13.73;9.77;;;;;;;-4.95;100.00;97403.59;4941210;28;20320;-51
2022/03/06 06:09:04;;;;;;;10.90;9.50;;;;;;;-4.92;100.00;97400.03;4938443;28;20213;-50
2022/03/06 06:11:32;;;;;;;12.80;10.03;;;;;;;-4.94;100.00;97402.66;4917306;28;20872;-46
2022/03/06 06:14:00;;;;;;;17.70;13.82;;;;;;;-4.87;100.00;97399.75;4960138;28;20960;-49
2022/03/06 06:16:29;;;;;;;15.47;12.10;;;;;;;-4.92;100.00;97407.78;4931268;28;20472;-49
2022/03/06 06:18:57;;;;;;;16.07;11.53;;;;;;;-4.95;100.00;97402.75;4969197;28;20345;-48
2022/03/06 06:21:25;;;;;;;14.93;11.47;;;;;;;-4.87;100.00;97413.53;4949036;28;20551;-46
2022/03/06 06:23:55;;;;;;;13.37;11.40;;;;;;;-4.76;100.00;97418.09;4966409;28;20859;-46
2022/03/06 06:26:24;;;;;;;12.33;10.23;;;;;;;-4.60;100.00;97418.09;4908056;28;20233;-49
2022/03/06 06:28:55;;;;;;;16.17;13.05;;;;;;;-4.58;100.00;97421.44;4962604;28;20904;-50
2022/03/06 06:31:24;;;;;;;12.53;11.03;;;;;;;-4.54;100.00;97406.59;4940357;28;20233;-46
2022/03/06 06:33:54;;;;;;;12.80;11.47;;;;;;;-4.37;100.00;97421.19;4939244;28;20609;-49
2022/03/06 06:36:22;;;;;;;14.43;11.07;;;;;;;-4.15;100.00;97422.59;4950777;28;20252;-50
2022/03/06 06:38:51;;;;;;;14.43;11.00;;;;;;;-4.20;100.00;97415.09;4931864;28;20321;-45
2022/03/06 06:41:20;;;;;;;11.30;10.03;;;;;;;-4.16;100.00;97426.13;4948464;28;20287;-53
2022/03/06 06:43:48;;;;;;;11.30;9.53;;;;;;;-4.09;100.00;97430.84;4923731;28;20276;-47
2022/03/06 06:46:17;;;;;;;14.00;10.57;;;;;;;-3.86;100.00;97423.53;4962986;28;20272;-51
2022/03/06 06:48:45;;;;;;;16.40;12.77;;;;;;;-3.74;100.00;97428.94;4935759;28;20462;-51
2022/03/06 06:51:13;;;;;;;14.43;11.60;;;;;;;-3.67;100.00;97430.25;4963410;28;21249;-53
2022/03/06 06:53:41;;;;;;;14.03;11.57;;;;;;;-3.72;100.00;97424.50;4945169;28;20604;-53
2022/03/06 06:56:10;;;;;;;11.50;10.17;;;;;;;-3.67;100.00;97433.69;4945528;28;20226;-51
2022/03/06 06:58:39;;;;;;;13.03;9.87;;;;;;;-3.44;100.00;97423.72;4927109;28;20213;-53
2022/03/06 07:01:08;;;;;;;15.98;13.65;;;;;;;-3.51;100.00;97430.19;4960379;28;21296;-56
2022/03/06 07:03:36;;;;;;;17.73;11.43;;;;;;;-3.40;100.00;97429.56;4940691;28;20231;-49
2022/03/06 07:06:04;;;;;;;12.70;10.70;;;;;;;-3.30;100.00;97438.44;4962162;28;20479;-52
2022/03/06 07:08:33;;;;;;;16.13;10.77;;;;;;;-3.11;100.00;97438.19;4947349;28;20245;-52
2022/03/06 07:11:01;;;;;;;11.27;9.40;;;;;;;-2.95;100.00;97432.91;4946049;28;20887;-48
2022/03/06 07:13:29;;;;;;;12.60;10.10;;;;;;;-2.87;100.00;97436.78;4920109;28;20252;-51
2022/03/06 07:15:59;;;;;;;13.20;9.20;;;;;;;-2.94;100.00;97425.97;4959419;28;20221;-55
2022/03/06 07:18:27;;;;;;;10.60;9.53;;;;;;;-2.70;100.00;97430.56;4965249;28;20225;-53
2022/03/06 07:20:55;;;;;;;11.60;10.20;;;;;;;-2.48;100.00;97435.25;4933506;28;21042;-51
2022/03/06 07:23:23;;;;;;;9.90;8.80;;;;;;;-2.33;100.00;97438.66;4949827;28;20300;-50
2022/03/06 07:25:51;;;;;;;10.67;8.27;;;;;;;-2.45;100.00;97442.03;4963984;28;20941;-49
2022/03/06 07:28:20;;;;;;;9.67;8.17;;;;;;;-2.25;100.00;97441.63;4906766;28;20784;-54
2022/03/06 07:30:48;;;;;;;12.10;10.90;;;;;;;-2.08;100.00;97437.97;4959300;28;20709;-49
2022/03/06 07:33:18;;;;;;;12.30;9.43;;;;;;;-1.87;100.00;97449.66;4966088;28;20813;-52
2022/03/06 07:35:46;;;;;;;10.33;9.23;;;;;;;-1.86;100.00;97444.34;4933870;28;20300;-52
2022/03/06 07:38:14;;;;;;;13.13;10.68;;;;;;;-1.60;100.00;97440.03;4946153;28;20464;-52
2022/03/06 07:40:42;;;;;;;11.73;9.33;;;;;;;-1.32;100.00;97442.59;4965119;28;20328;-50
2022/03/06 07:43:11;;;;;;;10.63;9.50;;;;;;;-1.38;100.00;97440.38;4905800;28;20755;-49
2022/03/06 07:45:39;;;;;;;14.43;10.30;;;;;;;-1.32;100.00;97445.19;4963467;28;20603;-52
2022/03/06 07:48:07;;;;;;;9.47;8.53;;;;;;;-1.02;100.00;97446.63;4953193;28;20256;-49
2022/03/06 07:50:37;;;;;;;10.87;9.77;;;;;;;-1.09;100.00;97451.44;4939533;28;20293;-54
2022/03/06 07:53:05;;;;;;;11.10;9.43;;;;;;;-0.90;100.00;97455.38;4956749;28;20771;-52
2022/03/06 07:55:34;;;;;;;13.67;9.97;;;;;;;-0.85;100.00;97444.66;4937242;28;20299;-51
2022/03/06 07:58:02;;;;;;;10.63;8.93;;;;;;;-0.50;100.00;97447.41;4904366;28;21550;-49
2022/03/06 08:00:30;;;;;;;11.23;9.20;;;;;;;-0.57;100.00;97453.97;4960919;28;20718;-49
2022/03/06 08:02:58;;;;;;;9.73;8.63;;;;;;;-0.53;100.00;97458.03;4948883;28;20414;-50
2022/03/06 08:05:27;;;;;;;9.77;8.77;;;;;;;-0.30;100.00;97458.19;4942338;28;20260;-50
2022/03/06 08:07:56;;;;;;;10.03;9.07;;;;;;;-0.43;100.00;97458.22;4964651;28;20205;-49
2022/03/06 08:10:25;;;;;;;9.57;8.57;;;;;;;-0.35;100.00;97452.47;4950432;28;20938;-48
2022/03/06 08:12:53;;;;;;;8.90;7.97;;;;;;;-0.35;100.00;97458.50;4924139;28;20494;-50
2022/03/06 08:15:21;;;;;;;9.27;8.37;;;;;;;-0.08;100.00;97446.22;4962918;28;20363;-50
2022/03/06 08:17:50;;;;;;;10.37;9.37;;;;;;;-0.19;100.00;97453.03;4945907;28;20213;-51
2022/03/06 08:20:18;;;;;;;11.67;9.77;;;;;;;-0.23;100.00;97450.75;4942602;28;20261;-50
2022/03/06 08:22:46;;;;;;;9.37;8.37;;;;;;;-0.11;100.00;97449.91;4962716;28;20201;-50
2022/03/06 08:25:19;;;;;;;10.47;8.83;;;;;;;-0.15;100.00;97436.25;4947265;28;20857;-51
2022/03/06 08:27:47;;;;;;;10.60;8.17;;;;;;;-0.08;100.00;97439.25;4933817;28;20301;-50
2022/03/06 08:30:16;;;;;;;11.20;8.27;;;;;;;-0.19;100.00;97449.59;4951123;28;20436;-52
2022/03/06 08:32:44;;;;;;;8.53;7.67;;;;;;;-0.31;100.00;97452.13;4961875;28;20257;-50
2022/03/06 08:35:12;;;;;;;10.40;8.47;;;;;;;-0.38;100.00;97450.91;4957668;28;20287;-51
2022/03/06 08:37:40;;;;;;;10.63;9.17;;;;;;;-0.33;100.00;97442.78;4939640;28;20323;-54
2022/03/06 08:40:09;;;;;;;8.70;7.77;;;;;;;-0.36;100.00;97450.81;4944413;28;20257;-52
2022/03/06 08:42:39;;;;;;;10.32;9.23;;;;;;;-0.31;100.00;97457.34;4940349;28;20544;-50
2022/03/06 08:45:08;;;;;;;8.47;7.70;;;;;;;-0.17;100.00;97455.56;4921491;28;20626;-51
2022/03/06 08:47:36;;;;;;;12.90;10.33;;;;;;;0.00;100.00;97451.75;4946448;28;20293;-54
2022/03/06 08:50:05;;;;;;;9.60;8.63;;;;;;;0.10;100.00;97455.34;4945662;28;20210;-53
2022/03/06 08:52:34;;;;;;;10.33;8.97;;;;;;;0.42;100.00;97456.50;4944984;28;20217;-46
2022/03/06 08:55:02;;;;;;;11.70;9.10;;;;;;;0.94;100.00;97451.78;4944048;28;20786;-46
2022/03/06 08:57:30;;;;;;;9.97;8.27;;;;;;;0.47;100.00;97459.59;4960990;28;20803;-48
2022/03/06 08:59:59;;;;;;;11.68;10.48;;;;;;;-0.28;100.00;97456.31;4911593;28;20609;-50
2022/03/06 09:02:28;;;;;;;10.07;8.73;;;;;;;-0.63;100.00;97452.63;4958160;28;20206;-53
2022/03/06 09:04:56;;;;;;;10.60;8.93;;;;;;;-0.80;100.00;97460.78;4934825;28;20261;-51
2022/03/06 09:07:27;;;;;;;9.67;7.93;;;;;;;-0.67;100.00;97458.16;4936917;28;20292;-49
2022/03/06 09:10:01;;;;;;;10.70;7.93;;;;;;;-0.71;100.00;97454.94;4960735;28;20471;-56
2022/03/06 09:12:38;;;;;;;9.93;8.93;;;;;;;-0.16;100.00;97449.41;4951529;28;20226;-52
2022/03/06 09:15:08;;;;;;;10.93;9.13;;;;;;;0.34;100.00;97451.03;4913360;28;20768;-50
2022/03/06 09:17:37;;;;;;;9.23;8.33;;;;;;;0.57;100.00;97451.94;4954793;28;20685;-50
2022/03/06 09:20:07;;;;;;;10.03;8.07;;;;;;;1.12;100.00;97444.31;4941333;28;20434;-49
2022/03/06 09:22:35;;;;;;;8.93;8.13;;;;;;;1.57;100.00;97443.50;4956256;28;20206;-51
2022/03/06 09:25:04;;;;;;;8.87;8.07;;;;;;;1.62;100.00;97447.50;4947363;28;20934;-53
2022/03/06 09:27:32;;;;;;;8.93;7.77;;;;;;;1.54;100.00;97443.72;4947177;28;20214;-52
2022/03/06 09:30:00;;;;;;;7.83;7.13;;;;;;;1.40;100.00;97447.41;4925872;28;20824;-52
2022/03/06 09:32:30;;;;;;;8.67;7.77;;;;;;;1.68;100.00;97450.44;4959794;28;20290;-52
2022/03/06 09:34:58;;;;;;;9.57;7.03;;;;;;;1.54;100.00;97448.97;4947911;28;20522;-55
2022/03/06 09:37:26;;;;;;;9.80;8.80;;;;;;;1.35;100.00;97441.72;4950708;28;20823;-53
2022/03/06 09:39:54;;;;;;;9.33;7.60;;;;;;;1.51;100.00;97454.38;4936884;28;20325;-54
2022/03/06 09:42:24;;;;;;;10.00;7.53;;;;;;;1.93;99.04;97445.91;4962325;28;20288;-54
2022/03/06 09:44:52;;;;;;;8.30;7.50;;;;;;;2.00;92.04;97449.66;4947673;28;20921;-52
2022/03/06 09:47:20;;;;;;;7.73;6.60;;;;;;;2.19;84.43;97450.81;4923833;28;20265;-52
2022/03/06 09:49:50;;;;;;;8.80;7.90;;;;;;;2.07;87.30;97444.78;4940674;28;20202;-49
2022/03/06 09:52:18;;;;;;;9.83;7.73;;;;;;;2.19;84.70;97444.75;4951538;28;20634;-54
2022/03/06 09:54:46;;;;;;;13.90;10.30;;;;;;;2.53;86.18;97437.59;4938140;28;20679;-50
2022/03/06 09:57:19;;;;;;;17.53;14.50;;;;;;;2.72;82.52;97439.53;4962389;28;20277;-47
2022/03/06 09:59:47;;;;;;;8.53;7.77;;;;;;;2.36;77.49;97438.97;4946450;28;20301;-49
2022/03/06 10:02:15;;;;;;;9.27;8.47;;;;;;;2.31;76.50;97443.75;4926286;28;20265;-50
2022/03/06 10:04:46;;;;;;;9.00;7.90;;;;;;;2.49;81.86;97440.59;4947857;28;20623;-49
2022/03/06 10:07:17;;;;;;;8.10;7.00;;;;;;;2.59;77.68;97442.31;4961645;28;20726;-47
2022/03/06 10:09:46;;;;;;;8.00;7.20;;;;;;;3.13;73.08;97446.63;4926839;28;20675;-49
2022/03/06 10:12:22;;;;;;;7.77;6.97;;;;;;;3.24;65.90;97448.34;4962224;28;20745;-49
2022/03/06 10:14:52;;;;;;;8.70;7.77;;;;;;;3.28;67.51;97445.31;4945259;28;20523;-52
2022/03/06 10:17:21;;;;;;;9.27;7.27;;;;;;;3.38;68.51;97436.66;4903397;28;20263;-54
2022/03/06 10:19:52;;;;;;;7.43;6.73;;;;;;;3.12;73.25;97450.22;4961809;28;20706;-48
2022/03/06 10:22:24;;;;;;;7.10;6.40;;;;;;;3.50;58.83;97442.63;4949393;28;20446;-51
2022/03/06 10:24:53;;;;;;;7.47;6.83;;;;;;;3.15;61.07;97442.91;4924476;28;20256;-51
2022/03/06 10:27:43;;;;;;;8.07;7.37;;;;;;;2.94;65.91;97439.50;4958360;28;20225;-55
2022/03/06 10:30:32;;;;;;;8.27;7.47;;;;;;;2.63;64.85;97444.69;4926654;28;20305;-49
2022/03/06 10:33:01;;;;;;;7.80;6.63;;;;;;;2.52;63.47;97445.56;4924517;28;20241;-48
2022/03/06 10:35:34;;;;;;;6.40;5.90;;;;;;;2.57;64.71;97446.84;4942875;28;20893;-50
2022/03/06 10:38:18;;;;;;;7.73;6.87;;;;;;;2.36;65.15;97446.00;4947657;28;20296;-47
2022/03/06 10:40:46;;;;;;;6.37;5.87;;;;;;;1.88;58.55;97438.41;4924904;28;20759;-52
2022/03/06 10:43:19;;;;;;;5.70;5.27;;;;;;;1.67;57.53;97448.78;4937341;28;20300;-50
2022/03/06 10:45:48;;;;;;;7.60;6.90;;;;;;;1.94;57.80;97441.53;4948339;28;20240;-52
2022/03/06 10:48:16;;;;;;;6.53;5.93;;;;;;;1.91;56.96;97445.19;4922316;28;21058;-52
2022/03/06 10:50:45;;;;;;;6.90;6.30;;;;;;;2.53;56.78;97441.97;4945263;28;20682;-56
2022/03/06 10:53:25;;;;;;;8.00;6.53;;;;;;;2.43;56.96;97441.91;4949659;28;20633;-52
2022/03/06 10:55:53;;;;;;;7.87;7.03;;;;;;;2.70;55.43;97445.81;4950200;28;20229;-54
2022/03/06 10:58:22;;;;;;;6.53;5.93;;;;;;;2.79;53.41;97439.00;4936371;28;20224;-54
2022/03/06 11:00:50;;;;;;;5.83;5.33;;;;;;;2.53;53.79;97440.22;4951070;28;20324;-54
2022/03/06 11:03:20;;;;;;;5.57;5.03;;;;;;;2.39;53.39;97435.28;4952499;28;20206;-55
2022/03/06 11:05:49;;;;;;;6.47;5.87;;;;;;;2.21;53.04;97438.44;4923910;28;20588;-53
2022/03/06 11:08:18;;;;;;;7.50;6.63;;;;;;;2.43;54.01;97434.06;4948551;28;20249;-54
2022/03/06 11:10:48;;;;;;;7.53;6.87;;;;;;;3.15;52.86;97423.75;4961863;28;20237;-53
2022/03/06 11:13:16;;;;;;;7.40;6.57;;;;;;;2.94;52.65;97429.84;4941328;28;20233;-54
2022/03/06 11:15:44;;;;;;;7.30;6.60;;;;;;;2.95;53.18;97436.75;4963999;28;20710;-53
2022/03/06 11:18:13;;;;;;;6.90;6.33;;;;;;;2.96;53.10;97424.50;4951964;28;20202;-53
2022/03/06 11:20:41;;;;;;;8.53;5.90;;;;;;;3.24;52.26;97415.09;4916502;28;20754;-55
2022/03/06 11:23:19;;;;;;;7.60;6.77;;;;;;;3.20;52.17;97418.94;4940064;28;20217;-54
2022/03/06 11:25:57;;;;;;;5.97;5.47;;;;;;;3.75;50.92;97400.22;4954197;28;20222;-54
2022/03/06 11:28:32;;;;;;;6.70;6.13;;;;;;;4.05;51.68;97416.81;4938627;28;20213;-55